This is the latest recevied weather packets stored in our database for station/object K5GHS-1. If no packets are shown the sender has not sent any weather packets the latest 10 day(s).
| Time | Temp. | Humidity | Pressure | Rain* | Wind** | Luminosity | Snow |
|---|---|---|---|---|---|---|---|
| 1788554596 | 36.67° C | 46% | 1010.8 hPa | 0 mm | - | 103 W/m² | - |
| 1788554293 | 36.67° C | 45% | 1010.9 hPa | 0 mm | - | 519 W/m² | - |
| 1788553989 | 36.67° C | 45% | 1011 hPa | 0 mm | - | 524 W/m² | - |
| 1788553684 | 35.56° C | 47% | 1011 hPa | 0 mm | - | 491 W/m² | - |
| 1788553380 | 36.11° C | 47% | 1011 hPa | 0 mm | - | 501 W/m² | - |
| 1788553076 | 36.11° C | 47% | 1011 hPa | 0 mm | - | 565 W/m² | - |
| 1788552775 | 35.56° C | 47% | 1011.2 hPa | 0 mm | - | 590 W/m² | - |
| 1788552470 | 36.11° C | 48% | 1011.2 hPa | 0 mm | - | 105 W/m² | - |
| 1788552164 | 36.67° C | 46% | 1011.2 hPa | 0 mm | - | 114 W/m² | - |
| 1788551864 | 37.22° C | 45% | 1011.2 hPa | 0 mm | - | 616 W/m² | - |
| 1788551562 | 36.11° C | 46% | 1011.5 hPa | 0 mm | - | 586 W/m² | - |
| 1788551258 | 36.11° C | 45% | 1011.6 hPa | 0 mm | - | 597 W/m² | - |
| 1788550956 | 36.67° C | 45% | 1011.6 hPa | 0 mm | - | 588 W/m² | - |
| 1788550652 | 36.67° C | 45% | 1011.5 hPa | 0 mm | - | 594 W/m² | - |
| 1788550348 | 36.11° C | 45% | 1011.6 hPa | 0 mm | - | 568 W/m² | - |
| 1788550043 | 36.11° C | 46% | 1011.8 hPa | 0 mm | - | 563 W/m² | - |
| 1788549738 | 36.67° C | 45% | 1011.8 hPa | 0 mm | - | 571 W/m² | - |
| 1788549435 | 36.67° C | 44% | 1011.7 hPa | 0 mm | - | 601 W/m² | - |
| 1788549131 | 36.67° C | 45% | 1011.7 hPa | 0 mm | - | 607 W/m² | - |
| 1788548827 | 36.11° C | 47% | 1011.8 hPa | 0 mm | - | 611 W/m² | - |
| 1788548523 | 36.11° C | 47% | 1011.9 hPa | 0 mm | - | 595 W/m² | - |
| 1788548219 | 35.56° C | 48% | 1012.2 hPa | 0 mm | - | 611 W/m² | - |
| 1788547914 | 35.56° C | 48% | 1012.2 hPa | 0 mm | - | 629 W/m² | - |
| 1788547612 | 35.56° C | 48% | 1012.2 hPa | 0 mm | - | 658 W/m² | - |
| 1788547308 | 35° C | 50% | 1012.3 hPa | 0 mm | - | 681 W/m² | - |
* Rain latest hour (hover to see other rain measurements)
** Current wind speed in m/s (hover to see current wind gust speed)